Time;durP1;ratioP1;P1;durP2;ratioP2;P2;SDS_P1;SDS_P2;PMS_P1;PMS_P2;Temp;Humidity;BMP_temperature;BMP_pressure;BME280_temperature;BME280_humidity;BME280_pressure;Samples;Min_cycle;Max_cycle;Signal;HPM_P1;HPM_P2
2023/06/18 00:00:18;;;;;;;38.33;21.55;;;;;;;;;;6256223;28;20057;-60
2023/06/18 00:03:39;;;;;;;37.53;20.55;;;;;;;;;;6254499;28;20489;-59
2023/06/18 00:06:39;;;;;;;31.95;20.25;;;;;;;;;;6255619;28;20087;-60
2023/06/18 00:09:40;;;;;;;34.03;20.10;;;;;;;;;;6256306;28;20049;-60
2023/06/18 00:12:40;;;;;;;36.03;20.45;;;;;;;;;;6256553;28;20049;-60
2023/06/18 00:15:42;;;;;;;33.53;20.13;;;;;;;;;;6254484;28;20119;-59
2023/06/18 00:18:42;;;;;;;34.50;21.30;;;;;;;;;;6253482;28;20045;-59
2023/06/18 00:21:43;;;;;;;38.35;21.38;;;;;;;;;;6259291;28;20080;-60
2023/06/18 00:24:43;;;;;;;32.78;19.27;;;;;;;;;;6259726;28;20942;-59
2023/06/18 00:27:44;;;;;;;34.25;20.83;;;;;;;;;;6259085;28;20037;-60
2023/06/18 00:30:45;;;;;;;34.45;20.35;;;;;;;;;;6257673;28;20049;-59
2023/06/18 00:33:46;;;;;;;35.40;20.42;;;;;;;;;;6259601;28;20586;-61
2023/06/18 00:36:50;;;;;;;34.63;20.60;;;;;;;;;;6260549;28;20045;-60
2023/06/18 00:39:51;;;;;;;32.67;19.45;;;;;;;;;;6259388;28;20481;-60
2023/06/18 00:42:52;;;;;;;36.63;20.50;;;;;;;;;;6256842;28;20055;-60
2023/06/18 00:46:01;;;;;;;33.40;20.53;;;;;;;;;;6256310;28;20554;-60
2023/06/18 00:49:02;;;;;;;36.30;22.02;;;;;;;;;;6258036;28;20052;-60
2023/06/18 00:52:03;;;;;;;37.03;20.90;;;;;;;;;;6259572;28;20053;-59
2023/06/18 00:55:04;;;;;;;35.47;21.13;;;;;;;;;;6258959;28;20091;-60
2023/06/18 00:58:05;;;;;;;39.07;21.23;;;;;;;;;;6258214;28;20045;-60
2023/06/18 01:01:10;;;;;;;34.92;20.73;;;;;;;;;;6259214;28;20052;-61
2023/06/18 01:04:11;;;;;;;34.20;21.48;;;;;;;;;;6260169;28;20132;-60
2023/06/18 01:07:13;;;;;;;40.78;23.52;;;;;;;;;;6257893;28;20043;-60
2023/06/18 01:10:15;;;;;;;35.08;20.92;;;;;;;;;;6257074;28;20119;-60
2023/06/18 01:13:16;;;;;;;37.45;21.08;;;;;;;;;;6258197;28;20041;-59
2023/06/18 01:16:22;;;;;;;33.07;20.87;;;;;;;;;;6256064;28;20420;-60
2023/06/18 01:19:56;;;;;;;34.83;20.20;;;;;;;;;;6254702;28;20423;-61
2023/06/18 01:23:02;;;;;;;34.95;20.83;;;;;;;;;;6257210;28;20136;-61
2023/06/18 01:26:03;;;;;;;34.83;21.38;;;;;;;;;;6260458;28;20467;-60
2023/06/18 01:29:10;;;;;;;32.75;19.85;;;;;;;;;;6258488;28;20057;-60
2023/06/18 01:32:11;;;;;;;34.78;19.77;;;;;;;;;;6259415;28;20466;-60
2023/06/18 01:35:17;;;;;;;35.80;20.90;;;;;;;;;;6258415;28;20049;-60
2023/06/18 01:38:32;;;;;;;35.08;21.20;;;;;;;;;;6257891;28;20114;-61
2023/06/18 01:41:37;;;;;;;32.60;20.63;;;;;;;;;;6255535;28;20048;-60
2023/06/18 01:44:40;;;;;;;34.65;20.33;;;;;;;;;;6256889;28;20393;-60
2023/06/18 01:47:43;;;;;;;35.70;19.92;;;;;;;;;;6256534;28;20514;-61
2023/06/18 01:50:46;;;;;;;33.08;20.30;;;;;;;;;;6256245;28;20041;-60
2023/06/18 01:53:50;;;;;;;35.75;20.25;;;;;;;;;;6260678;28;20075;-60
2023/06/18 01:56:51;;;;;;;31.10;19.00;;;;;;;;;;6260760;28;20041;-61
2023/06/18 01:59:52;;;;;;;29.95;19.13;;;;;;;;;;6257405;28;20047;-61
2023/06/18 02:02:52;;;;;;;35.58;20.45;;;;;;;;;;6256098;28;20049;-60
2023/06/18 02:05:53;;;;;;;36.58;20.48;;;;;;;;;;6254856;28;20041;-60
2023/06/18 02:08:54;;;;;;;32.70;19.33;;;;;;;;;;6255599;28;20048;-61
2023/06/18 02:11:55;;;;;;;35.45;20.05;;;;;;;;;;6257936;28;20076;-60
2023/06/18 02:14:55;;;;;;;31.98;19.77;;;;;;;;;;6258678;28;20508;-60
2023/06/18 02:17:56;;;;;;;30.92;19.85;;;;;;;;;;6257470;28;20045;-60
2023/06/18 02:20:58;;;;;;;34.10;20.63;;;;;;;;;;6251722;28;20475;-61
2023/06/18 02:23:58;;;;;;;30.80;19.50;;;;;;;;;;6254919;28;20055;-60
2023/06/18 02:26:59;;;;;;;32.92;18.35;;;;;;;;;;6256188;28;20045;-60
2023/06/18 02:30:01;;;;;;;32.22;19.30;;;;;;;;;;6255293;28;20131;-61
2023/06/18 02:33:07;;;;;;;30.58;18.85;;;;;;;;;;6256409;28;20500;-60
2023/06/18 02:36:09;;;;;;;32.80;19.52;;;;;;;;;;6255904;28;20052;-61
2023/06/18 02:39:10;;;;;;;32.92;18.73;;;;;;;;;;6256812;28;20655;-60
2023/06/18 02:42:11;;;;;;;29.77;18.27;;;;;;;;;;6255368;28;20075;-60
2023/06/18 02:45:12;;;;;;;31.92;19.52;;;;;;;;;;6255886;28;20522;-61
2023/06/18 02:48:13;;;;;;;30.75;17.63;;;;;;;;;;6256606;28;20049;-60
2023/06/18 02:51:14;;;;;;;33.15;19.00;;;;;;;;;;6255265;28;20055;-60
2023/06/18 02:54:15;;;;;;;30.33;17.73;;;;;;;;;;6256802;28;20094;-61
2023/06/18 02:57:15;;;;;;;33.25;18.13;;;;;;;;;;6255758;28;20478;-60
2023/06/18 03:00:16;;;;;;;31.50;18.25;;;;;;;;;;6255724;28;20449;-60
2023/06/18 03:03:19;;;;;;;30.90;18.10;;;;;;;;;;6255542;28;20037;-60
2023/06/18 03:06:20;;;;;;;30.88;18.58;;;;;;;;;;6257083;28;20051;-60
2023/06/18 03:09:20;;;;;;;27.25;17.52;;;;;;;;;;6253280;28;20049;-60
2023/06/18 03:12:21;;;;;;;27.13;16.80;;;;;;;;;;6254220;28;20068;-61
2023/06/18 03:15:22;;;;;;;30.83;19.00;;;;;;;;;;6255499;28;20048;-61
2023/06/18 03:18:23;;;;;;;28.70;18.00;;;;;;;;;;6254407;28;21786;-61
2023/06/18 03:21:23;;;;;;;26.45;16.58;;;;;;;;;;6253768;28;20041;-60
2023/06/18 03:24:24;;;;;;;30.52;19.20;;;;;;;;;;6254308;28;20764;-60
2023/06/18 03:27:25;;;;;;;30.30;17.90;;;;;;;;;;6256545;28;20067;-61
2023/06/18 03:30:26;;;;;;;27.02;16.90;;;;;;;;;;6255202;28;20580;-60
2023/06/18 03:33:29;;;;;;;29.70;18.03;;;;;;;;;;6256875;28;20474;-61
2023/06/18 03:36:39;;;;;;;30.33;17.80;;;;;;;;;;6256418;28;20049;-61
2023/06/18 03:39:39;;;;;;;28.50;17.90;;;;;;;;;;6253137;28;20130;-61
2023/06/18 03:42:40;;;;;;;29.67;18.50;;;;;;;;;;6254620;28;20041;-61
2023/06/18 03:45:40;;;;;;;31.15;18.48;;;;;;;;;;6256477;28;20049;-61
2023/06/18 03:48:43;;;;;;;32.28;19.10;;;;;;;;;;6258158;28;20068;-61
2023/06/18 03:51:43;;;;;;;;;;;;;;;;;;6255323;28;20125;-60
2023/06/18 03:54:44;;;;;;;37.50;20.77;;;;;;;;;;6253574;28;19925;-60
2023/06/18 03:57:45;;;;;;;31.23;18.70;;;;;;;;;;6254898;28;20051;-61
2023/06/18 04:00:46;;;;;;;32.35;19.08;;;;;;;;;;6257297;28;20033;-60
2023/06/18 04:03:46;;;;;;;36.03;19.10;;;;;;;;;;6258991;28;20845;-61
2023/06/18 04:06:47;;;;;;;30.33;18.42;;;;;;;;;;6260178;28;20497;-60
2023/06/18 04:09:47;;;;;;;30.60;18.63;;;;;;;;;;6261441;28;20463;-61
2023/06/18 04:12:48;;;;;;;28.70;17.92;;;;;;;;;;6259270;28;20053;-61
2023/06/18 04:15:49;;;;;;;30.65;19.13;;;;;;;;;;6260654;28;20048;-61
2023/06/18 04:18:50;;;;;;;33.15;19.23;;;;;;;;;;6260241;28;20164;-61
2023/06/18 04:21:50;;;;;;;30.25;18.88;;;;;;;;;;6259412;28;20037;-60
2023/06/18 04:24:51;;;;;;;30.73;19.02;;;;;;;;;;6258710;28;20056;-61
2023/06/18 04:27:52;;;;;;;37.45;21.27;;;;;;;;;;6258839;28;20163;-61
2023/06/18 04:30:53;;;;;;;34.53;20.25;;;;;;;;;;6257652;28;20041;-59
2023/06/18 04:33:54;;;;;;;40.08;22.30;;;;;;;;;;6257693;28;20483;-60
2023/06/18 04:36:55;;;;;;;44.75;25.38;;;;;;;;;;6259951;28;20068;-60
2023/06/18 04:39:55;;;;;;;38.67;23.85;;;;;;;;;;6259564;28;20037;-60
2023/06/18 04:42:57;;;;;;;42.25;24.42;;;;;;;;;;6258013;28;20049;-60
2023/06/18 04:45:58;;;;;;;39.70;24.05;;;;;;;;;;6260057;28;20074;-61
2023/06/18 04:48:59;;;;;;;40.97;24.13;;;;;;;;;;6258817;28;20067;-61
2023/06/18 04:52:00;;;;;;;41.45;24.02;;;;;;;;;;6258906;28;20128;-60
2023/06/18 04:55:00;;;;;;;43.42;23.70;;;;;;;;;;6258205;28;20152;-61
2023/06/18 04:58:01;;;;;;;35.10;20.83;;;;;;;;;;6262368;28;20491;-61
2023/06/18 05:01:02;;;;;;;32.38;18.90;;;;;;;;;;6257359;28;20047;-61
2023/06/18 05:04:03;;;;;;;31.85;19.25;;;;;;;;;;6259569;28;20051;-61
2023/06/18 05:07:04;;;;;;;34.00;18.35;;;;;;;;;;6258945;28;20139;-60
2023/06/18 05:10:05;;;;;;;30.90;17.10;;;;;;;;;;6257638;28;20056;-60
2023/06/18 05:13:06;;;;;;;31.25;17.48;;;;;;;;;;6261762;28;20132;-61
2023/06/18 05:16:06;;;;;;;32.17;17.88;;;;;;;;;;6258903;28;20056;-60
2023/06/18 05:19:07;;;;;;;32.93;18.20;;;;;;;;;;6258615;28;20083;-62
2023/06/18 05:22:07;;;;;;;33.30;17.80;;;;;;;;;;6265418;28;20424;-61
2023/06/18 05:25:08;;;;;;;33.70;16.63;;;;;;;;;;6266175;28;20053;-61
2023/06/18 05:28:09;;;;;;;32.00;17.60;;;;;;;;;;6265870;28;20041;-61
2023/06/18 05:31:11;;;;;;;30.60;16.38;;;;;;;;;;6265844;28;20103;-61
2023/06/18 05:34:11;;;;;;;27.05;16.33;;;;;;;;;;6265982;28;20041;-61
2023/06/18 05:37:12;;;;;;;28.40;15.43;;;;;;;;;;6263779;28;20503;-60
2023/06/18 05:40:12;;;;;;;30.33;16.83;;;;;;;;;;6265227;28;20139;-60
2023/06/18 05:43:14;;;;;;;28.37;15.67;;;;;;;;;;6265520;28;20048;-60
2023/06/18 05:46:15;;;;;;;25.38;14.55;;;;;;;;;;6266711;28;20060;-59
2023/06/18 05:49:16;;;;;;;21.20;13.45;;;;;;;;;;6265324;28;20056;-61
2023/06/18 05:52:16;;;;;;;24.80;15.50;;;;;;;;;;6265445;28;20122;-60
2023/06/18 05:55:17;;;;;;;23.10;14.20;;;;;;;;;;6266421;28;20207;-60
2023/06/18 05:58:17;;;;;;;24.83;13.90;;;;;;;;;;6265632;28;20048;-59
2023/06/18 06:01:18;;;;;;;24.75;13.35;;;;;;;;;;6265164;28;20057;-61
2023/06/18 06:04:20;;;;;;;25.88;14.88;;;;;;;;;;6265039;28;20052;-61
2023/06/18 06:07:21;;;;;;;26.15;14.77;;;;;;;;;;6265441;28;20579;-61
2023/06/18 06:10:22;;;;;;;27.17;15.32;;;;;;;;;;6265134;28;20043;-60
2023/06/18 06:13:23;;;;;;;28.63;14.23;;;;;;;;;;6260182;28;20049;-60
2023/06/18 06:16:23;;;;;;;24.20;14.53;;;;;;;;;;6240883;28;20049;-60
2023/06/18 06:19:25;;;;;;;25.63;14.48;;;;;;;;;;6239663;28;20103;-60
2023/06/18 06:22:26;;;;;;;24.30;14.05;;;;;;;;;;6239226;28;20531;-61
2023/06/18 06:25:28;;;;;;;20.40;12.40;;;;;;;;;;6264346;28;20140;-60
2023/06/18 06:28:28;;;;;;;23.00;13.05;;;;;;;;;;6264758;28;20475;-61
2023/06/18 06:31:29;;;;;;;20.70;12.80;;;;;;;;;;6263751;28;20080;-61
2023/06/18 06:34:30;;;;;;;19.08;11.82;;;;;;;;;;6264792;28;20415;-60
2023/06/18 06:37:32;;;;;;;19.13;11.30;;;;;;;;;;6264709;28;20068;-60
2023/06/18 06:40:32;;;;;;;19.20;12.18;;;;;;;;;;6258261;28;20052;-60
2023/06/18 06:43:33;;;;;;;17.17;11.30;;;;;;;;;;6263831;28;20040;-60
2023/06/18 06:46:34;;;;;;;19.27;12.30;;;;;;;;;;6265117;28;20045;-60
2023/06/18 06:49:35;;;;;;;17.45;12.30;;;;;;;;;;6263755;28;20051;-60
2023/06/18 06:52:35;;;;;;;21.37;13.20;;;;;;;;;;6262161;28;20052;-61
2023/06/18 06:55:36;;;;;;;19.98;13.07;;;;;;;;;;6265250;28;20052;-60
2023/06/18 06:58:37;;;;;;;22.80;13.10;;;;;;;;;;6254971;28;20056;-60
2023/06/18 07:01:39;;;;;;;22.20;13.65;;;;;;;;;;6254176;28;20055;-59
2023/06/18 07:04:45;;;;;;;;;;;;;;;;;;6255478;28;20128;-60
2023/06/18 07:07:46;;;;;;;22.85;13.48;;;;;;;;;;6252497;28;19921;-60
2023/06/18 07:10:47;;;;;;;21.80;14.17;;;;;;;;;;6253787;28;20507;-61
2023/06/18 07:13:48;;;;;;;23.43;13.83;;;;;;;;;;6256232;28;20500;-60
2023/06/18 07:16:48;;;;;;;20.30;13.47;;;;;;;;;;6255635;28;20494;-60
2023/06/18 07:19:49;;;;;;;23.50;14.33;;;;;;;;;;6255494;28;20080;-60
2023/06/18 07:22:49;;;;;;;23.63;15.50;;;;;;;;;;6256187;28;20488;-61
2023/06/18 07:25:50;;;;;;;24.80;14.90;;;;;;;;;;6256381;28;20147;-61
2023/06/18 07:28:50;;;;;;;20.33;13.47;;;;;;;;;;6253546;28;20582;-60
2023/06/18 07:31:51;;;;;;;21.00;13.70;;;;;;;;;;6256163;28;20045;-60
2023/06/18 07:34:52;;;;;;;21.53;13.77;;;;;;;;;;6259441;28;20045;-60
2023/06/18 07:37:52;;;;;;;21.93;14.10;;;;;;;;;;6259652;28;20500;-60
2023/06/18 07:40:53;;;;;;;18.63;12.77;;;;;;;;;;6260051;28;20048;-60
2023/06/18 07:43:54;;;;;;;20.00;12.93;;;;;;;;;;6258647;28;20033;-60
2023/06/18 07:46:54;;;;;;;21.83;13.40;;;;;;;;;;6258862;28;20033;-60
2023/06/18 07:49:55;;;;;;;19.87;13.60;;;;;;;;;;6258607;28;20488;-60
2023/06/18 07:52:55;;;;;;;20.30;13.33;;;;;;;;;;6260919;28;20114;-61
2023/06/18 07:55:56;;;;;;;22.47;13.03;;;;;;;;;;6260145;28;20048;-60
2023/06/18 07:58:57;;;;;;;19.63;12.50;;;;;;;;;;6258742;28;20048;-61
2023/06/18 08:01:58;;;;;;;18.83;12.57;;;;;;;;;;6260386;28;20111;-60
2023/06/18 08:04:58;;;;;;;16.70;12.23;;;;;;;;;;6260816;28;20554;-61
2023/06/18 08:07:59;;;;;;;16.90;10.37;;;;;;;;;;6259316;28;20045;-61
2023/06/18 08:10:59;;;;;;;15.00;10.00;;;;;;;;;;6259772;28;20068;-60
2023/06/18 08:14:02;;;;;;;15.40;10.27;;;;;;;;;;6258012;28;20045;-60
2023/06/18 08:17:03;;;;;;;14.60;9.40;;;;;;;;;;6260763;28;20825;-58
2023/06/18 08:20:04;;;;;;;14.55;10.15;;;;;;;;;;6259215;28;20053;-60
2023/06/18 08:23:05;;;;;;;14.37;9.50;;;;;;;;;;6260421;28;20056;-59
2023/06/18 08:26:05;;;;;;;15.17;9.97;;;;;;;;;;6263496;28;20401;-59
2023/06/18 08:29:06;;;;;;;17.57;9.90;;;;;;;;;;6256604;28;20048;-59
2023/06/18 08:32:07;;;;;;;16.93;10.70;;;;;;;;;;6258754;28;20044;-59
2023/06/18 08:35:08;;;;;;;13.83;10.23;;;;;;;;;;6259722;28;20040;-56
2023/06/18 08:38:09;;;;;;;16.03;10.23;;;;;;;;;;6259519;28;20055;-60
2023/06/18 08:41:11;;;;;;;14.57;9.87;;;;;;;;;;6259347;28;20290;-58
2023/06/18 08:44:12;;;;;;;18.00;11.25;;;;;;;;;;6257878;28;20053;-59
2023/06/18 08:47:13;;;;;;;17.13;11.37;;;;;;;;;;6258253;28;20052;-59
2023/06/18 08:50:16;;;;;;;17.55;11.05;;;;;;;;;;6257690;28;20041;-59
2023/06/18 08:53:25;;;;;;;18.95;11.27;;;;;;;;;;6260199;28;20038;-58
2023/06/18 08:56:28;;;;;;;15.63;10.70;;;;;;;;;;6258864;28;20411;-59
2023/06/18 08:59:31;;;;;;;16.08;10.70;;;;;;;;;;6260047;28;20045;-59
2023/06/18 09:02:31;;;;;;;15.10;11.32;;;;;;;;;;6258895;28;20048;-59
2023/06/18 09:05:33;;;;;;;17.00;11.60;;;;;;;;;;6260545;28;20041;-58
2023/06/18 09:08:36;;;;;;;15.00;11.23;;;;;;;;;;6259536;28;20156;-59
2023/06/18 09:11:36;;;;;;;16.77;10.82;;;;;;;;;;6258155;28;20045;-60
2023/06/18 09:14:37;;;;;;;16.60;11.33;;;;;;;;;;6259251;28;20140;-60
2023/06/18 09:17:40;;;;;;;16.80;10.50;;;;;;;;;;6259739;28;20056;-59
2023/06/18 09:20:41;;;;;;;17.77;10.90;;;;;;;;;;6257913;28;20090;-60
2023/06/18 09:23:54;;;;;;;17.45;11.13;;;;;;;;;;6259244;28;20381;-60
2023/06/18 09:27:03;;;;;;;15.88;10.45;;;;;;;;;;6258938;28;20090;-59
2023/06/18 09:30:07;;;;;;;15.27;10.32;;;;;;;;;;6254969;28;20045;-59
2023/06/18 09:33:11;;;;;;;16.85;10.27;;;;;;;;;;6255378;28;20096;-59
2023/06/18 09:36:11;;;;;;;15.27;10.45;;;;;;;;;;6256861;28;20041;-59
2023/06/18 09:39:17;;;;;;;16.47;10.90;;;;;;;;;;6259211;28;20063;-60
2023/06/18 09:42:27;;;;;;;17.48;11.18;;;;;;;;;;6256723;28;20041;-60
2023/06/18 09:45:28;;;;;;;16.63;11.05;;;;;;;;;;6257182;28;20504;-60
2023/06/18 09:48:29;;;;;;;17.23;11.30;;;;;;;;;;6258380;28;20048;-59
2023/06/18 09:51:30;;;;;;;16.80;11.20;;;;;;;;;;6256553;28;20045;-60
2023/06/18 09:54:41;;;;;;;18.20;11.93;;;;;;;;;;6259138;28;20045;-59
2023/06/18 09:57:49;;;;;;;18.95;12.88;;;;;;;;;;6257092;28;20045;-59
2023/06/18 10:01:03;;;;;;;20.98;12.60;;;;;;;;;;6257876;28;20567;-59
2023/06/18 10:04:04;;;;;;;19.20;12.45;;;;;;;;;;6255964;28;20107;-59
2023/06/18 10:07:13;;;;;;;23.33;13.57;;;;;;;;;;6257725;28;20083;-59
2023/06/18 10:10:15;;;;;;;19.38;13.10;;;;;;;;;;6255322;28;20051;-59
2023/06/18 10:13:16;;;;;;;;;;;;;;;;;;6256795;28;20030;-59
2023/06/18 10:16:19;;;;;;;16.05;11.10;;;;;;;;;;6257157;28;19921;-59
2023/06/18 10:19:27;;;;;;;20.42;13.85;;;;;;;;;;6264124;28;20087;-58
2023/06/18 10:22:32;;;;;;;19.58;12.77;;;;;;;;;;6256183;28;20101;-58
2023/06/18 10:25:34;;;;;;;18.85;12.40;;;;;;;;;;6255153;28;20037;-59
2023/06/18 10:28:35;;;;;;;21.67;13.32;;;;;;;;;;6259787;28;20404;-60
2023/06/18 10:31:36;;;;;;;20.17;13.50;;;;;;;;;;6255970;28;20037;-60
2023/06/18 10:34:39;;;;;;;19.45;12.65;;;;;;;;;;6258203;28;20056;-59
2023/06/18 10:37:41;;;;;;;18.95;12.68;;;;;;;;;;6260079;28;20049;-60
2023/06/18 10:40:42;;;;;;;20.23;13.18;;;;;;;;;;6261458;28;20055;-59
2023/06/18 10:43:43;;;;;;;18.30;12.10;;;;;;;;;;6258878;28;20041;-60
2023/06/18 10:47:20;;;;;;;18.87;13.23;;;;;;;;;;6258277;28;20037;-60
2023/06/18 10:50:20;;;;;;;19.67;12.35;;;;;;;;;;6254103;28;20045;-59
2023/06/18 10:53:22;;;;;;;17.13;12.13;;;;;;;;;;6262657;28;20044;-60
2023/06/18 10:56:22;;;;;;;19.25;12.60;;;;;;;;;;6256299;28;20051;-60
2023/06/18 10:59:42;;;;;;;15.60;10.40;;;;;;;;;;6257147;28;20045;-59
2023/06/18 11:02:43;;;;;;;18.05;11.63;;;;;;;;;;6257229;28;20072;-60
2023/06/18 11:05:44;;;;;;;;;;;;;;;;;;6261754;28;20782;-60
2023/06/18 11:08:44;;;;;;;14.88;10.07;;;;;;;;;;6261804;28;20007;-59
2023/06/18 11:11:50;;;;;;;15.80;10.17;;;;;;;;;;6262156;28;20052;-60
2023/06/18 11:15:15;;;;;;;13.57;8.85;;;;;;;;;;6264161;28;20081;-59
2023/06/18 11:18:25;;;;;;;14.35;8.35;;;;;;;;;;6259570;28;20051;-60
2023/06/18 11:21:27;;;;;;;12.88;9.10;;;;;;;;;;6260827;28;20232;-60
2023/06/18 11:24:28;;;;;;;15.30;9.50;;;;;;;;;;6259942;28;20059;-60
2023/06/18 11:27:30;;;;;;;16.55;9.77;;;;;;;;;;6258342;28;20124;-59
2023/06/18 11:30:36;;;;;;;16.17;10.80;;;;;;;;;;6259816;28;20140;-60
2023/06/18 11:33:38;;;;;;;24.10;11.38;;;;;;;;;;6250688;28;20136;-60
2023/06/18 11:36:42;;;;;;;16.10;10.93;;;;;;;;;;6256916;28;20577;-60
2023/06/18 11:39:43;;;;;;;17.13;11.68;;;;;;;;;;6254945;28;20049;-60
2023/06/18 11:42:51;;;;;;;17.45;11.85;;;;;;;;;;6250275;28;20049;-60
2023/06/18 11:45:53;;;;;;;17.77;11.43;;;;;;;;;;6248767;28;20107;-60
2023/06/18 11:48:55;;;;;;;16.63;11.20;;;;;;;;;;6247615;28;20450;-61
2023/06/18 11:51:56;;;;;;;17.02;11.75;;;;;;;;;;6244470;28;20563;-61
2023/06/18 11:55:04;;;;;;;17.88;12.40;;;;;;;;;;6243726;28;20059;-60
2023/06/18 11:58:05;;;;;;;19.55;12.07;;;;;;;;;;6245234;28;21346;-60
2023/06/18 12:01:05;;;;;;;16.38;11.40;;;;;;;;;;6245814;28;20681;-61
2023/06/18 12:04:08;;;;;;;16.00;10.47;;;;;;;;;;6243354;28;20048;-60
2023/06/18 12:07:10;;;;;;;15.68;10.75;;;;;;;;;;6245212;28;20041;-60
2023/06/18 12:10:12;;;;;;;15.77;9.10;;;;;;;;;;6247600;28;20057;-60
2023/06/18 12:13:27;;;;;;;13.23;8.65;;;;;;;;;;6242678;28;20055;-60
2023/06/18 12:16:30;;;;;;;11.57;8.02;;;;;;;;;;6244854;28;20045;-61
2023/06/18 12:19:31;;;;;;;12.13;8.80;;;;;;;;;;6245949;28;20242;-60
2023/06/18 12:22:32;;;;;;;12.33;8.47;;;;;;;;;;6245035;28;20805;-60
2023/06/18 12:25:33;;;;;;;;;;;;;;;;;;6248963;28;20052;-60
2023/06/18 12:28:34;;;;;;;12.50;8.00;;;;;;;;;;6248687;28;19932;-60
2023/06/18 12:31:36;;;;;;;12.25;8.65;;;;;;;;;;6248389;28;20057;-60
2023/06/18 12:34:37;;;;;;;;;;;;;;;;;;6247492;28;20156;-60
2023/06/18 12:37:43;;;;;;;12.67;8.57;;;;;;;;;;6250354;28;19925;-60
2023/06/18 12:40:48;;;;;;;13.77;9.32;;;;;;;;;;6249400;28;20098;-60
2023/06/18 12:43:49;;;;;;;14.30;9.90;;;;;;;;;;6244593;28;20322;-60
2023/06/18 12:46:49;;;;;;;15.10;9.73;;;;;;;;;;6247115;28;20542;-60
2023/06/18 12:49:50;;;;;;;14.60;9.87;;;;;;;;;;6247956;28;20045;-59
2023/06/18 12:52:52;;;;;;;13.17;9.63;;;;;;;;;;6244578;28;20409;-60
2023/06/18 12:55:57;;;;;;;15.73;9.60;;;;;;;;;;6249193;28;20622;-60
2023/06/18 12:58:59;;;;;;;15.43;9.73;;;;;;;;;;6249667;28;20148;-60
2023/06/18 13:02:00;;;;;;;17.65;10.45;;;;;;;;;;6248485;28;20057;-60
2023/06/18 13:05:01;;;;;;;20.90;11.47;;;;;;;;;;6246598;28;20345;-60
2023/06/18 13:08:02;;;;;;;18.60;11.53;;;;;;;;;;6247788;28;20048;-59
2023/06/18 13:11:04;;;;;;;17.17;11.30;;;;;;;;;;6249283;28;20045;-59
2023/06/18 13:14:05;;;;;;;18.50;11.75;;;;;;;;;;6245615;28;20048;-60
2023/06/18 13:17:06;;;;;;;18.10;13.20;;;;;;;;;;6248223;28;20054;-60
2023/06/18 13:20:09;;;;;;;20.37;12.13;;;;;;;;;;6247085;28;20567;-60
2023/06/18 13:23:10;;;;;;;18.52;12.35;;;;;;;;;;6245304;28;20049;-60
2023/06/18 13:26:11;;;;;;;20.05;12.40;;;;;;;;;;6247884;28;20099;-60
2023/06/18 13:29:12;;;;;;;21.40;12.93;;;;;;;;;;6246360;28;20968;-60
2023/06/18 13:32:13;;;;;;;20.20;13.65;;;;;;;;;;6243837;28;20041;-59
2023/06/18 13:35:14;;;;;;;17.10;12.20;;;;;;;;;;6244588;28;20146;-59
2023/06/18 13:38:15;;;;;;;13.97;9.67;;;;;;;;;;6247205;28;20127;-59
2023/06/18 13:41:16;;;;;;;12.68;8.82;;;;;;;;;;6247458;28;20049;-60
2023/06/18 13:44:17;;;;;;;10.50;6.73;;;;;;;;;;6247785;28;20056;-59
2023/06/18 13:47:17;;;;;;;12.37;9.00;;;;;;;;;;6248305;28;20049;-60
2023/06/18 13:50:18;;;;;;;15.20;10.00;;;;;;;;;;6248741;28;20408;-59
2023/06/18 13:53:18;;;;;;;18.40;11.90;;;;;;;;;;6243782;28;20063;-60
2023/06/18 13:56:19;;;;;;;17.70;12.03;;;;;;;;;;6249361;28;20128;-60
2023/06/18 13:59:20;;;;;;;18.83;12.13;;;;;;;;;;6247407;28;20060;-60
2023/06/18 14:02:21;;;;;;;17.67;11.60;;;;;;;;;;6244729;28;20629;-60
2023/06/18 14:05:21;;;;;;;15.20;11.07;;;;;;;;;;6246006;28;20052;-60
2023/06/18 14:08:22;;;;;;;14.33;10.00;;;;;;;;;;6248098;28;20179;-60
2023/06/18 14:11:22;;;;;;;17.13;11.17;;;;;;;;;;6246045;28;20771;-60
2023/06/18 14:14:23;;;;;;;18.47;10.73;;;;;;;;;;6243430;28;20104;-60
2023/06/18 14:17:25;;;;;;;16.87;10.63;;;;;;;;;;6248201;28;20564;-60
2023/06/18 14:20:26;;;;;;;15.63;10.88;;;;;;;;;;6248116;28;20524;-61
2023/06/18 14:23:29;;;;;;;16.27;11.00;;;;;;;;;;6242939;28;20064;-60
2023/06/18 14:26:32;;;;;;;16.50;11.63;;;;;;;;;;6246883;28;20134;-60
2023/06/18 14:29:32;;;;;;;16.05;10.77;;;;;;;;;;6255534;28;20049;-60
2023/06/18 14:32:33;;;;;;;13.67;9.90;;;;;;;;;;6253108;28;20102;-60
2023/06/18 14:35:33;;;;;;;15.63;10.00;;;;;;;;;;6258260;28;20523;-60
2023/06/18 14:38:34;;;;;;;14.30;10.40;;;;;;;;;;6253972;28;20052;-59
2023/06/18 14:41:35;;;;;;;16.07;9.97;;;;;;;;;;6253865;28;20056;-59
2023/06/18 14:44:36;;;;;;;15.88;10.20;;;;;;;;;;6250370;28;20060;-59
2023/06/18 14:47:40;;;;;;;16.23;9.87;;;;;;;;;;6254329;28;20049;-60
2023/06/18 14:50:43;;;;;;;16.40;10.50;;;;;;;;;;6254279;28;20504;-59
2023/06/18 14:53:51;;;;;;;13.50;9.88;;;;;;;;;;6251475;28;20401;-59
2023/06/18 14:56:52;;;;;;;14.55;10.18;;;;;;;;;;6255318;28;20072;-60
2023/06/18 14:59:55;;;;;;;15.67;9.97;;;;;;;;;;6255312;28;20052;-60
2023/06/18 15:02:56;;;;;;;19.20;10.00;;;;;;;;;;6252143;28;21201;-60
2023/06/18 15:05:56;;;;;;;14.63;10.10;;;;;;;;;;6268772;28;20037;-60
2023/06/18 15:08:57;;;;;;;14.47;10.20;;;;;;;;;;6254606;28;20550;-59
2023/06/18 15:11:57;;;;;;;12.90;9.93;;;;;;;;;;6252895;28;20057;-60
2023/06/18 15:14:58;;;;;;;13.90;9.83;;;;;;;;;;6252025;28;20460;-59
2023/06/18 15:17:58;;;;;;;14.27;10.37;;;;;;;;;;6252976;28;20048;-59
2023/06/18 15:20:59;;;;;;;13.80;9.90;;;;;;;;;;6254293;28;20073;-60
2023/06/18 15:24:00;;;;;;;16.40;11.77;;;;;;;;;;6249993;28;20064;-58
2023/06/18 15:27:01;;;;;;;18.15;12.13;;;;;;;;;;6255833;28;20131;-60
2023/06/18 15:30:03;;;;;;;16.90;10.97;;;;;;;;;;6254756;28;20032;-59
2023/06/18 15:33:04;;;;;;;16.20;10.55;;;;;;;;;;6251615;28;20445;-60
2023/06/18 15:36:05;;;;;;;16.03;10.77;;;;;;;;;;6254324;28;20099;-56
2023/06/18 15:39:09;;;;;;;15.50;10.67;;;;;;;;;;6253852;28;20057;-58
2023/06/18 15:42:12;;;;;;;18.00;11.60;;;;;;;;;;6253667;28;20080;-59
2023/06/18 15:45:12;;;;;;;18.08;11.40;;;;;;;;;;6252969;28;20040;-58
2023/06/18 15:48:18;;;;;;;16.80;11.10;;;;;;;;;;6254394;28;20048;-58
2023/06/18 15:51:18;;;;;;;19.35;12.18;;;;;;;;;;6254780;28;20037;-59
2023/06/18 15:54:19;;;;;;;19.10;12.60;;;;;;;;;;6249996;28;20113;-59
2023/06/18 15:57:20;;;;;;;20.40;12.23;;;;;;;;;;6255774;28;20072;-60
2023/06/18 16:00:21;;;;;;;17.87;12.03;;;;;;;;;;6257644;28;20817;-60
2023/06/18 16:03:21;;;;;;;23.10;12.93;;;;;;;;;;6257241;28;20306;-60
2023/06/18 16:06:22;;;;;;;18.20;12.07;;;;;;;;;;6257012;28;20052;-60
2023/06/18 16:09:23;;;;;;;17.23;11.87;;;;;;;;;;6258839;28;20168;-60
2023/06/18 16:12:23;;;;;;;25.67;12.40;;;;;;;;;;6254959;28;20123;-59
2023/06/18 16:15:24;;;;;;;21.10;12.20;;;;;;;;;;6254487;28;20078;-60
2023/06/18 16:18:25;;;;;;;17.97;12.00;;;;;;;;;;6255186;28;20045;-59
2023/06/18 16:21:27;;;;;;;18.92;12.05;;;;;;;;;;6256675;28;20041;-57
2023/06/18 16:24:28;;;;;;;18.70;11.73;;;;;;;;;;6254493;28;20128;-57
2023/06/18 16:27:28;;;;;;;18.83;12.40;;;;;;;;;;6256146;28;20079;-58
2023/06/18 16:30:30;;;;;;;19.83;12.03;;;;;;;;;;6256380;28;20037;-58
2023/06/18 16:33:30;;;;;;;18.15;12.32;;;;;;;;;;6253503;28;20056;-58
2023/06/18 16:36:31;;;;;;;21.67;12.37;;;;;;;;;;6256946;28;20052;-58
2023/06/18 16:39:36;;;;;;;19.08;12.57;;;;;;;;;;6256430;28;20158;-60
2023/06/18 16:42:37;;;;;;;18.88;12.63;;;;;;;;;;6252730;28;20172;-58
2023/06/18 16:45:38;;;;;;;18.02;12.38;;;;;;;;;;6251403;28;20048;-58
2023/06/18 16:48:38;;;;;;;18.55;12.43;;;;;;;;;;6254113;28;20045;-60
2023/06/18 16:51:40;;;;;;;18.83;12.97;;;;;;;;;;6255394;28;20140;-60
2023/06/18 16:54:40;;;;;;;18.58;12.38;;;;;;;;;;6252747;28;20064;-60
2023/06/18 16:57:41;;;;;;;16.47;11.87;;;;;;;;;;6255500;28;20446;-60
2023/06/18 17:00:41;;;;;;;18.73;13.07;;;;;;;;;;6255715;28;20052;-60
2023/06/18 17:03:42;;;;;;;20.00;12.90;;;;;;;;;;6253110;28;20246;-60
2023/06/18 17:06:43;;;;;;;24.80;12.80;;;;;;;;;;6256735;28;20045;-58
2023/06/18 17:09:43;;;;;;;18.47;13.17;;;;;;;;;;6255008;28;20095;-57
2023/06/18 17:12:44;;;;;;;18.00;12.75;;;;;;;;;;6253573;28;20094;-58
2023/06/18 17:15:46;;;;;;;19.70;13.27;;;;;;;;;;6253314;28;20041;-58
2023/06/18 17:18:47;;;;;;;20.52;13.88;;;;;;;;;;6256584;28;20092;-59
2023/06/18 17:21:48;;;;;;;21.27;13.60;;;;;;;;;;6256798;28;20041;-58
2023/06/18 17:24:48;;;;;;;22.07;14.60;;;;;;;;;;6252786;28;20049;-59
2023/06/18 17:27:50;;;;;;;18.83;13.70;;;;;;;;;;6256631;28;20088;-59
2023/06/18 17:30:51;;;;;;;19.60;13.23;;;;;;;;;;6257097;28;20363;-59
2023/06/18 17:33:52;;;;;;;18.45;12.57;;;;;;;;;;6251944;28;20061;-59
2023/06/18 17:36:52;;;;;;;20.23;13.83;;;;;;;;;;6255013;28;20087;-59
2023/06/18 17:39:53;;;;;;;18.00;13.27;;;;;;;;;;6257220;28;20048;-56
2023/06/18 17:42:54;;;;;;;20.87;14.40;;;;;;;;;;6251681;28;20033;-59